createdAt,value
2022-10-05T00:00:04.880Z,9.57
2022-10-05T00:01:06.822Z,9.34
2022-10-05T00:01:46.989Z,8.61
2022-10-05T00:02:28.788Z,9.04
2022-10-05T00:03:23.842Z,10.70
2022-10-05T00:04:17.052Z,12.18
2022-10-05T00:05:10.880Z,12.23
2022-10-05T00:05:45.897Z,11.81
2022-10-05T00:06:32.840Z,11.81
2022-10-05T00:07:14.417Z,11.16
2022-10-05T00:08:01.819Z,11.19
2022-10-05T00:08:41.809Z,11.39
2022-10-05T00:09:24.861Z,14.09
2022-10-05T00:10:05.791Z,13.44
2022-10-05T00:10:46.940Z,12.43
2022-10-05T00:11:26.796Z,11.29
2022-10-05T00:12:21.894Z,10.75
2022-10-05T00:13:08.782Z,11.24
2022-10-05T00:13:49.843Z,12.52
2022-10-05T00:14:46.784Z,11.81
2022-10-05T00:15:40.798Z,10.64
2022-10-05T00:16:34.863Z,9.82
2022-10-05T00:17:36.817Z,11.16
2022-10-05T00:18:32.783Z,11.77
2022-10-05T00:19:41.808Z,9.71
2022-10-05T00:20:32.849Z,11.37
2022-10-05T00:21:42.811Z,12.56
2022-10-05T00:22:24.838Z,16.05
2022-10-05T00:23:07.776Z,20.54
2022-10-05T00:23:47.889Z,16.84
2022-10-05T00:24:27.792Z,14.86
2022-10-05T00:25:09.804Z,12.40
2022-10-05T00:25:43.852Z,12.18
2022-10-05T00:26:32.759Z,13.70
2022-10-05T00:27:07.846Z,11.13
2022-10-05T00:28:03.819Z,11.07
2022-10-05T00:28:37.888Z,11.07
2022-10-05T00:29:28.749Z,10.70
2022-10-05T00:30:05.826Z,10.55
2022-10-05T00:30:45.815Z,10.66
2022-10-05T00:31:28.901Z,12.90
2022-10-05T00:32:08.867Z,12.21
2022-10-05T00:32:49.823Z,11.99
2022-10-05T00:33:29.795Z,10.85
2022-10-05T00:34:09.843Z,11.61
2022-10-05T00:34:50.759Z,11.32
2022-10-05T00:35:31.573Z,11.54
2022-10-05T00:36:13.809Z,12.64
2022-10-05T00:36:53.814Z,11.52
2022-10-05T00:37:33.784Z,11.05
2022-10-05T00:38:13.835Z,10.91
2022-10-05T00:38:53.783Z,13.05
2022-10-05T00:39:33.827Z,11.14
2022-10-05T00:40:25.757Z,12.39
2022-10-05T00:41:25.780Z,11.46
2022-10-05T00:42:31.736Z,10.86
2022-10-05T00:43:37.760Z,11.68
2022-10-05T00:44:39.783Z,11.60
2022-10-05T00:45:44.811Z,12.16
2022-10-05T00:46:59.795Z,12.50
2022-10-05T00:47:56.740Z,10.44
2022-10-05T00:48:56.768Z,9.39
2022-10-05T00:49:50.740Z,9.57
2022-10-05T00:51:12.817Z,10.49
2022-10-05T00:52:26.837Z,11.95
2022-10-05T00:53:45.768Z,11.54
2022-10-05T00:54:58.744Z,11.68
2022-10-05T00:56:07.748Z,11.09
2022-10-05T00:57:04.752Z,10.98
2022-10-05T00:58:15.783Z,10.74
2022-10-05T00:58:59.815Z,11.68
2022-10-05T01:00:11.799Z,11.76
2022-10-05T01:01:21.907Z,12.04
2022-10-05T01:02:19.846Z,12.57
2022-10-05T01:03:07.920Z,12.86
2022-10-05T01:04:03.793Z,13.09
2022-10-05T01:04:55.865Z,11.23
2022-10-05T01:05:35.739Z,11.24
2022-10-05T01:06:22.632Z,12.34
2022-10-05T01:07:24.775Z,12.61
2022-10-05T01:08:26.850Z,10.91
2022-10-05T01:09:50.802Z,11.50
2022-10-05T01:10:41.853Z,11.60
2022-10-05T01:11:43.738Z,10.14
2022-10-05T01:12:38.858Z,9.90
2022-10-05T01:13:25.736Z,10.38
2022-10-05T01:14:29.788Z,11.32
2022-10-05T01:15:21.756Z,10.93
2022-10-05T01:16:54.893Z,11.29
2022-10-05T01:17:51.792Z,10.89
2022-10-05T01:18:41.847Z,10.19
2022-10-05T01:19:27.743Z,10.14
2022-10-05T01:20:17.804Z,11.25
2022-10-05T01:21:12.738Z,12.09
2022-10-05T01:22:03.780Z,12.01
2022-10-05T01:22:58.732Z,13.14
2022-10-05T01:23:58.827Z,13.11
2022-10-05T01:25:21.749Z,12.02
2022-10-05T01:26:48.091Z,11.68
2022-10-05T01:28:01.831Z,11.25
2022-10-05T01:29:08.784Z,12.73
2022-10-05T01:30:32.730Z,12.00
2022-10-05T01:31:46.807Z,12.44
2022-10-05T01:32:45.710Z,12.51
2022-10-05T01:33:34.844Z,12.76
2022-10-05T01:34:29.705Z,11.69
2022-10-05T01:35:27.761Z,10.84
2022-10-05T01:36:16.740Z,10.69
2022-10-05T01:37:11.791Z,11.32
2022-10-05T01:38:44.737Z,11.84
2022-10-05T01:39:53.707Z,12.14
2022-10-05T01:40:59.699Z,11.98
2022-10-05T01:42:02.720Z,11.44
2022-10-05T01:42:59.725Z,11.26
2022-10-05T01:43:52.820Z,10.19
2022-10-05T01:44:39.714Z,10.38
2022-10-05T01:45:22.772Z,11.05
2022-10-05T01:46:12.756Z,11.86
2022-10-05T01:47:03.791Z,11.75
2022-10-05T01:47:56.680Z,12.07
2022-10-05T01:49:11.728Z,11.89
2022-10-05T01:49:54.786Z,11.23
2022-10-05T01:51:15.742Z,11.07
2022-10-05T01:51:59.844Z,11.10
2022-10-05T01:52:50.724Z,11.56
2022-10-05T01:53:38.829Z,11.55
2022-10-05T01:54:59.803Z,10.49
2022-10-05T01:56:00.846Z,10.26
2022-10-05T01:56:56.719Z,10.80
2022-10-05T01:57:56.772Z,12.06
2022-10-05T01:59:05.685Z,11.41
2022-10-05T02:00:21.719Z,11.64
2022-10-05T02:01:25.378Z,11.25
2022-10-05T02:02:16.813Z,10.85
2022-10-05T02:03:11.541Z,11.23
2022-10-05T02:04:56.939Z,11.94
2022-10-05T02:05:31.697Z,12.39
2022-10-05T02:06:38.735Z,13.04
2022-10-05T02:07:44.753Z,15.15
2022-10-05T02:08:43.755Z,14.82
2022-10-05T02:09:33.682Z,15.80
2022-10-05T02:10:44.720Z,14.13
2022-10-05T02:11:18.687Z,14.51
2022-10-05T02:12:10.668Z,15.19
2022-10-05T02:12:45.163Z,15.51
2022-10-05T02:13:50.664Z,15.63
2022-10-05T02:14:28.753Z,13.79
2022-10-05T02:15:25.724Z,11.04
2022-10-05T02:16:10.811Z,11.68
2022-10-05T02:16:53.790Z,9.95
2022-10-05T02:17:45.713Z,10.19
2022-10-05T02:18:33.772Z,10.91
2022-10-05T02:19:32.667Z,11.88
2022-10-05T02:20:16.719Z,13.41
2022-10-05T02:20:57.659Z,14.57
2022-10-05T02:21:40.699Z,14.61
2022-10-05T02:22:44.761Z,13.23
2022-10-05T02:23:24.386Z,12.04
2022-10-05T02:24:07.661Z,11.11
2022-10-05T02:25:00.753Z,12.19
2022-10-05T02:25:37.750Z,10.84
2022-10-05T02:26:18.649Z,11.48
2022-10-05T02:26:59.719Z,10.41
2022-10-05T02:27:52.472Z,10.21
2022-10-05T02:29:03.713Z,9.56
2022-10-05T02:29:40.164Z,10.00
2022-10-05T02:30:26.679Z,9.61
2022-10-05T02:31:11.542Z,10.15
2022-10-05T02:32:03.687Z,9.31
2022-10-05T02:33:01.309Z,8.94
2022-10-05T02:33:49.644Z,10.11
2022-10-05T02:34:31.814Z,8.76
2022-10-05T02:35:29.656Z,9.61
2022-10-05T02:36:16.117Z,10.76
2022-10-05T02:37:20.710Z,10.13
2022-10-05T02:38:07.457Z,9.23
2022-10-05T02:39:07.649Z,9.70
2022-10-05T02:40:18.634Z,9.90
2022-10-05T02:41:38.668Z,9.36
2022-10-05T02:42:41.680Z,10.11
2022-10-05T02:43:54.647Z,10.19
2022-10-05T02:45:15.630Z,10.45
2022-10-05T02:46:56.075Z,9.96
2022-10-05T02:48:05.688Z,8.30
2022-10-05T02:49:17.677Z,8.63
2022-10-05T02:50:21.643Z,10.26
2022-10-05T02:51:22.835Z,9.69
2022-10-05T02:52:22.640Z,8.50
2022-10-05T02:53:31.680Z,7.79
2022-10-05T02:54:38.673Z,7.78
2022-10-05T02:55:56.645Z,8.45
2022-10-05T02:57:18.639Z,9.24
2022-10-05T02:58:15.647Z,10.18
2022-10-05T02:59:06.757Z,10.21
2022-10-05T02:59:50.729Z,8.07
2022-10-05T03:00:31.631Z,9.38
2022-10-05T03:01:34.791Z,10.10
2022-10-05T03:02:43.647Z,8.88
2022-10-05T03:03:29.694Z,9.45
2022-10-05T03:04:33.648Z,10.31
2022-10-05T03:05:41.855Z,8.35
2022-10-05T03:06:27.673Z,8.98
2022-10-05T03:07:16.728Z,9.07
2022-10-05T03:08:10.627Z,8.00
2022-10-05T03:09:13.746Z,7.55
2022-10-05T03:10:16.634Z,7.32
2022-10-05T03:11:01.672Z,7.68
2022-10-05T03:12:05.607Z,6.51
2022-10-05T03:13:13.896Z,7.29
2022-10-05T03:14:10.664Z,8.05
2022-10-05T03:15:14.741Z,6.24
2022-10-05T03:15:55.687Z,7.71
2022-10-05T03:17:05.685Z,8.25
2022-10-05T03:18:00.601Z,7.57
2022-10-05T03:19:05.683Z,7.60
2022-10-05T03:20:03.623Z,7.32
2022-10-05T03:21:20.651Z,7.81
2022-10-05T03:22:30.640Z,6.70
2022-10-05T03:23:49.690Z,7.64
2022-10-05T03:24:55.070Z,8.10
2022-10-05T03:25:37.611Z,7.13
2022-10-05T03:27:08.653Z,7.90
2022-10-05T03:28:11.632Z,6.38
2022-10-05T03:29:36.639Z,6.26
2022-10-05T03:30:35.606Z,7.80
2022-10-05T03:31:56.590Z,8.39
2022-10-05T03:32:39.629Z,7.06
2022-10-05T03:33:41.736Z,7.56
2022-10-05T03:34:42.622Z,7.07
2022-10-05T03:35:35.685Z,6.56
2022-10-05T03:36:53.600Z,8.06
2022-10-05T03:37:46.636Z,9.50
2022-10-05T03:38:48.568Z,7.21
2022-10-05T03:40:15.628Z,6.79
2022-10-05T03:41:22.638Z,7.61
2022-10-05T03:42:23.576Z,7.72
2022-10-05T03:43:13.655Z,7.29
2022-10-05T03:44:20.677Z,6.95
2022-10-05T03:45:27.600Z,6.53
2022-10-05T03:46:17.750Z,7.46
2022-10-05T03:47:32.590Z,8.68
2022-10-05T03:48:21.667Z,7.21
2022-10-05T03:49:22.583Z,6.97
2022-10-05T03:50:34.588Z,7.74
2022-10-05T03:51:30.580Z,8.04
2022-10-05T03:52:51.587Z,6.95
2022-10-05T03:53:58.603Z,6.96
2022-10-05T03:54:54.638Z,7.66
2022-10-05T03:55:54.584Z,8.15
2022-10-05T03:56:42.678Z,9.31
2022-10-05T03:57:34.555Z,8.23
2022-10-05T03:58:13.635Z,7.22
2022-10-05T03:59:07.697Z,7.03
2022-10-05T03:59:48.679Z,6.89
2022-10-05T04:00:37.621Z,7.94
2022-10-05T04:01:15.731Z,8.43
2022-10-05T04:02:06.594Z,7.49
2022-10-05T04:03:02.674Z,6.82
2022-10-05T04:03:59.555Z,6.80
2022-10-05T04:05:00.589Z,7.69
2022-10-05T04:06:02.595Z,7.41
2022-10-05T04:07:00.600Z,7.90
2022-10-05T04:08:03.561Z,6.82
2022-10-05T04:09:12.658Z,6.70
2022-10-05T04:10:06.601Z,6.49
2022-10-05T04:11:03.565Z,7.34
2022-10-05T04:12:04.588Z,7.04
2022-10-05T04:13:04.584Z,6.91
2022-10-05T04:14:03.570Z,7.05
2022-10-05T04:15:00.592Z,7.84
2022-10-05T04:15:46.664Z,7.91
2022-10-05T04:16:35.665Z,7.31
2022-10-05T04:17:19.545Z,7.09
2022-10-05T04:18:04.643Z,7.31
2022-10-05T04:19:03.578Z,8.00
2022-10-05T04:19:50.685Z,8.74
2022-10-05T04:20:51.596Z,7.46
2022-10-05T04:21:55.665Z,7.09
2022-10-05T04:22:45.540Z,7.71
2022-10-05T04:23:44.642Z,8.07
2022-10-05T04:24:44.566Z,7.63
2022-10-05T04:25:31.620Z,8.20
2022-10-05T04:26:35.612Z,7.29
2022-10-05T04:27:23.671Z,6.71
2022-10-05T04:28:12.630Z,7.21
2022-10-05T04:29:19.648Z,7.29
2022-10-05T04:30:11.554Z,7.10
2022-10-05T04:30:53.626Z,7.71
2022-10-05T04:31:47.705Z,7.56
2022-10-05T04:32:59.424Z,7.97
2022-10-05T04:33:39.575Z,8.85
2022-10-05T04:34:56.679Z,10.19
2022-10-05T04:35:51.572Z,14.24
2022-10-05T04:36:37.643Z,17.05
2022-10-05T04:37:28.556Z,16.89
2022-10-05T04:38:23.655Z,15.84
2022-10-05T04:39:22.595Z,14.04
2022-10-05T04:40:15.653Z,9.85
2022-10-05T04:41:16.618Z,11.27
2022-10-05T04:42:07.448Z,10.52
2022-10-05T04:43:14.590Z,9.21
2022-10-05T04:44:18.614Z,11.27
2022-10-05T04:45:15.624Z,12.27
2022-10-05T04:46:16.692Z,13.34
2022-10-05T04:47:15.631Z,11.35
2022-10-05T04:48:26.571Z,11.24
2022-10-05T04:50:00.713Z,8.60
2022-10-05T04:51:14.537Z,8.07
2022-10-05T04:52:26.532Z,8.73
2022-10-05T04:53:23.604Z,9.34
2022-10-05T04:54:11.561Z,9.51
2022-10-05T04:55:18.583Z,8.66
2022-10-05T04:56:06.514Z,8.44
2022-10-05T04:56:49.954Z,7.95
2022-10-05T04:57:36.539Z,7.35
2022-10-05T04:58:28.587Z,7.21
2022-10-05T04:59:32.612Z,8.09
2022-10-05T05:00:16.624Z,8.71
2022-10-05T05:01:18.618Z,9.69
2022-10-05T05:02:06.765Z,6.72
2022-10-05T05:03:17.507Z,7.39
2022-10-05T05:04:21.615Z,8.68
2022-10-05T05:05:26.551Z,9.01
2022-10-05T05:06:30.719Z,7.72
2022-10-05T05:07:32.539Z,8.05
2022-10-05T05:08:15.581Z,8.99
2022-10-05T05:09:16.489Z,8.48
2022-10-05T05:10:26.017Z,7.97
2022-10-05T05:11:27.543Z,7.70
2022-10-05T05:12:26.604Z,8.59
2022-10-05T05:13:30.576Z,7.59
2022-10-05T05:14:26.766Z,7.76
2022-10-05T05:15:03.520Z,8.10
2022-10-05T05:16:00.596Z,8.01
2022-10-05T05:16:45.738Z,7.57
2022-10-05T05:17:50.656Z,8.45
2022-10-05T05:18:59.513Z,7.65
2022-10-05T05:19:47.556Z,7.76
2022-10-05T05:21:07.193Z,8.94
2022-10-05T05:22:03.540Z,8.64
2022-10-05T05:23:10.493Z,8.50
2022-10-05T05:24:14.545Z,8.31
2022-10-05T05:25:13.521Z,6.93
2022-10-05T05:26:35.619Z,8.27
2022-10-05T05:27:45.528Z,10.56
2022-10-05T05:28:42.546Z,7.30
2022-10-05T05:30:09.547Z,7.54
2022-10-05T05:31:02.587Z,7.93
2022-10-05T05:32:03.489Z,8.70
2022-10-05T05:32:40.602Z,8.91
2022-10-05T05:33:29.534Z,8.45
2022-10-05T05:34:46.601Z,8.24
2022-10-05T05:35:48.467Z,8.00
2022-10-05T05:37:00.578Z,7.28
2022-10-05T05:38:05.504Z,9.32
2022-10-05T05:39:00.553Z,8.75
2022-10-05T05:39:49.651Z,8.68
2022-10-05T05:40:43.543Z,7.35
2022-10-05T05:41:19.592Z,9.15
2022-10-05T05:42:31.701Z,9.89
2022-10-05T05:43:35.572Z,8.13
2022-10-05T05:44:50.512Z,8.71
2022-10-05T05:45:34.133Z,8.01
2022-10-05T05:46:51.056Z,7.86
2022-10-05T05:47:26.772Z,8.01
2022-10-05T05:48:46.476Z,7.68
2022-10-05T05:50:21.520Z,8.23
2022-10-05T05:51:29.473Z,8.38
2022-10-05T05:52:32.477Z,6.80
2022-10-05T05:53:32.471Z,7.32
2022-10-05T05:54:29.498Z,8.70
2022-10-05T05:55:36.490Z,8.84
2022-10-05T05:56:37.489Z,10.74
2022-10-05T05:57:45.495Z,12.61
2022-10-05T05:58:46.504Z,14.21
2022-10-05T05:59:51.516Z,18.60
2022-10-05T06:00:51.571Z,16.61
2022-10-05T06:01:57.569Z,18.65
2022-10-05T06:02:56.570Z,16.52
2022-10-05T06:03:59.462Z,13.10
2022-10-05T06:04:59.457Z,12.63
2022-10-05T06:05:58.483Z,12.50
2022-10-05T06:06:56.451Z,10.60
2022-10-05T06:07:51.494Z,11.82
2022-10-05T06:09:05.457Z,12.06
2022-10-05T06:10:35.458Z,9.93
2022-10-05T06:11:29.505Z,9.88
2022-10-05T06:12:09.696Z,10.19
2022-10-05T06:13:00.921Z,10.18
2022-10-05T06:13:45.523Z,11.59
2022-10-05T06:14:50.449Z,10.26
2022-10-05T06:15:37.553Z,13.15
2022-10-05T06:16:47.858Z,13.69
2022-10-05T06:17:39.545Z,11.40
2022-10-05T06:21:32.571Z,8.79
2022-10-05T06:22:29.501Z,8.94
2022-10-05T06:23:14.575Z,10.16
2022-10-05T06:24:04.437Z,11.01
2022-10-05T06:25:00.508Z,8.51
2022-10-05T06:26:13.435Z,8.65
2022-10-05T06:27:37.507Z,9.31
2022-10-05T06:28:32.508Z,12.74
2022-10-05T06:29:32.436Z,14.51
2022-10-05T06:30:28.443Z,10.55
2022-10-05T06:31:44.512Z,9.59
2022-10-05T06:32:53.493Z,8.44
2022-10-05T06:34:25.445Z,8.35
2022-10-05T06:35:44.450Z,9.84
2022-10-05T06:37:02.454Z,8.48
2022-10-05T06:38:01.500Z,8.71
2022-10-05T06:39:01.443Z,7.76
2022-10-05T06:40:01.591Z,6.64
2022-10-05T06:41:17.444Z,6.89
2022-10-05T06:42:42.470Z,8.81
2022-10-05T06:43:54.504Z,8.43
2022-10-05T06:44:41.513Z,8.25
2022-10-05T06:46:11.478Z,9.82
2022-10-05T06:47:14.539Z,10.27
2022-10-05T06:48:05.202Z,10.41
2022-10-05T06:49:14.474Z,8.29
2022-10-05T06:50:32.447Z,9.73
2022-10-05T06:51:40.418Z,10.59
2022-10-05T06:52:34.411Z,11.13
2022-10-05T06:53:38.405Z,14.38
2022-10-05T06:54:32.681Z,17.60
2022-10-05T06:55:43.485Z,17.02
2022-10-05T06:56:42.432Z,11.39
2022-10-05T06:58:03.496Z,10.85
2022-10-05T06:59:08.396Z,11.06
2022-10-05T07:00:11.475Z,10.41
2022-10-05T07:00:59.514Z,11.94
2022-10-05T07:01:54.499Z,13.44
2022-10-05T07:02:52.700Z,13.51
2022-10-05T07:03:50.483Z,11.40
2022-10-05T07:04:42.545Z,11.26
2022-10-05T07:06:06.488Z,11.16
2022-10-05T07:06:49.579Z,10.50
2022-10-05T07:08:05.426Z,11.01
2022-10-05T07:08:54.513Z,10.63
2022-10-05T07:09:49.411Z,9.41
2022-10-05T07:10:49.597Z,9.57
2022-10-05T07:11:55.258Z,7.68
2022-10-05T07:12:48.563Z,8.93
2022-10-05T07:13:43.395Z,10.23
2022-10-05T07:14:43.507Z,10.48
2022-10-05T07:15:31.451Z,10.19
2022-10-05T07:16:32.545Z,10.64
2022-10-05T07:17:37.516Z,9.49
2022-10-05T07:18:35.707Z,7.91
2022-10-05T07:19:27.399Z,8.14
2022-10-05T07:20:20.441Z,8.59
2022-10-05T07:21:29.440Z,8.32
2022-10-05T07:22:18.900Z,8.04
2022-10-05T07:23:18.458Z,9.96
2022-10-05T07:24:29.177Z,9.01
2022-10-05T07:25:29.438Z,7.86
2022-10-05T07:26:24.509Z,9.05
2022-10-05T07:27:10.440Z,9.39
2022-10-05T07:28:14.502Z,9.41
2022-10-05T07:29:13.436Z,9.70
2022-10-05T07:30:11.563Z,8.14
2022-10-05T07:31:08.483Z,6.81
2022-10-05T07:31:57.533Z,7.66
2022-10-05T07:32:51.371Z,7.46
2022-10-05T07:33:36.543Z,8.74
2022-10-05T07:34:29.427Z,10.15
2022-10-05T07:35:43.046Z,9.63
2022-10-05T07:37:09.405Z,8.82
2022-10-05T07:37:57.723Z,8.32
2022-10-05T07:38:44.371Z,7.20
2022-10-05T07:40:06.548Z,7.18
2022-10-05T07:41:23.821Z,8.31
2022-10-05T07:42:17.367Z,10.31
2022-10-05T07:43:16.488Z,8.44
2022-10-05T07:44:12.518Z,8.73
2022-10-05T07:45:27.480Z,8.84
2022-10-05T07:46:26.411Z,12.07
2022-10-05T07:47:37.410Z,13.13
2022-10-05T07:48:50.411Z,8.77
2022-10-05T07:50:01.364Z,11.09
2022-10-05T07:51:06.395Z,13.85
2022-10-05T07:51:46.456Z,13.68
2022-10-05T07:52:40.401Z,11.48
2022-10-05T07:53:30.051Z,11.26
2022-10-05T07:54:25.386Z,11.21
2022-10-05T07:55:33.452Z,9.89
2022-10-05T07:56:48.830Z,10.20
2022-10-05T07:57:41.439Z,15.10
2022-10-05T07:58:38.339Z,19.51
2022-10-05T07:59:24.454Z,13.96
2022-10-05T08:00:29.409Z,10.41
2022-10-05T08:01:29.670Z,9.41
2022-10-05T08:02:39.452Z,12.44
2022-10-05T08:03:40.472Z,17.69
2022-10-05T08:04:41.988Z,15.88
2022-10-05T08:05:32.433Z,8.98
2022-10-05T08:06:18.355Z,9.64
2022-10-05T08:07:03.425Z,10.81
2022-10-05T08:07:44.481Z,9.56
2022-10-05T08:08:38.428Z,9.99
2022-10-05T08:09:44.564Z,9.98
2022-10-05T08:10:56.439Z,9.75
2022-10-05T08:12:14.349Z,9.36
2022-10-05T08:13:34.392Z,9.45
2022-10-05T08:14:56.356Z,7.04
2022-10-05T08:15:55.404Z,8.07
2022-10-05T08:16:51.342Z,7.66
2022-10-05T08:17:53.626Z,6.65
2022-10-05T08:18:55.384Z,7.93
2022-10-05T08:19:39.872Z,6.05
2022-10-05T08:20:56.357Z,5.34
2022-10-05T08:21:38.092Z,7.81
2022-10-05T08:22:31.365Z,11.38
2022-10-05T08:23:23.524Z,11.35
2022-10-05T08:24:20.376Z,12.13
2022-10-05T08:24:59.450Z,12.73
2022-10-05T08:26:32.355Z,12.39
2022-10-05T08:27:32.945Z,8.69
2022-10-05T08:28:54.343Z,7.70
2022-10-05T08:29:57.364Z,8.77
2022-10-05T08:30:40.382Z,9.41
2022-10-05T08:31:30.358Z,8.14
2022-10-05T08:32:13.546Z,8.04
2022-10-05T08:33:01.385Z,8.26
2022-10-05T08:33:52.596Z,9.19
2022-10-05T08:35:13.411Z,8.66
2022-10-05T08:36:14.402Z,6.54
2022-10-05T08:37:11.307Z,6.81
2022-10-05T08:37:52.551Z,7.82
2022-10-05T08:38:38.309Z,7.05
2022-10-05T08:39:24.171Z,7.51
2022-10-05T08:40:36.375Z,8.45
2022-10-05T08:41:42.405Z,8.30
2022-10-05T08:43:19.313Z,8.49
2022-10-05T08:44:50.383Z,7.49
2022-10-05T08:45:36.359Z,5.96
2022-10-05T08:46:28.610Z,6.75
2022-10-05T08:47:13.308Z,6.45
2022-10-05T08:48:15.397Z,6.40
2022-10-05T08:49:16.322Z,6.71
2022-10-05T08:50:10.356Z,6.54
2022-10-05T08:51:29.323Z,6.09
2022-10-05T08:52:45.369Z,5.80
2022-10-05T08:54:02.296Z,6.55
2022-10-05T08:55:16.373Z,5.51
2022-10-05T08:56:29.065Z,6.20
2022-10-05T08:57:30.329Z,6.80
2022-10-05T08:58:19.406Z,6.25
2022-10-05T08:58:59.199Z,6.05
2022-10-05T08:59:47.329Z,5.93
2022-10-05T09:00:24.384Z,5.46
2022-10-05T09:01:02.076Z,6.32
2022-10-05T09:01:57.437Z,6.11
2022-10-05T09:03:08.744Z,5.55
2022-10-05T09:04:04.203Z,5.84
2022-10-05T09:04:56.325Z,6.05
2022-10-05T09:05:30.411Z,6.81
2022-10-05T09:06:22.078Z,6.82
2022-10-05T09:07:28.356Z,6.09
2022-10-05T09:08:35.391Z,5.49
2022-10-05T09:09:39.276Z,6.13
2022-10-05T09:10:53.305Z,7.21
2022-10-05T09:11:46.648Z,9.26
2022-10-05T09:12:51.453Z,9.85
2022-10-05T09:14:03.390Z,8.49
2022-10-05T09:15:24.880Z,7.24
2022-10-05T09:16:10.440Z,5.46
2022-10-05T09:16:59.291Z,4.13
2022-10-05T09:18:15.333Z,4.61
2022-10-05T09:18:51.922Z,5.44
2022-10-05T09:20:02.335Z,6.54
2022-10-05T09:20:55.688Z,7.45
2022-10-05T09:21:53.303Z,5.45
2022-10-05T09:22:39.571Z,5.34
2022-10-05T09:23:46.334Z,6.28
2022-10-05T09:24:56.443Z,4.05
2022-10-05T09:25:52.287Z,5.03
2022-10-05T09:26:41.039Z,5.29
2022-10-05T09:27:32.294Z,6.25
2022-10-05T09:28:25.279Z,6.26
2022-10-05T09:29:34.283Z,5.32
2022-10-05T09:30:22.412Z,5.03
2022-10-05T09:31:02.844Z,3.91
2022-10-05T09:31:58.293Z,4.64
2022-10-05T09:32:41.410Z,5.89
2022-10-05T09:33:35.816Z,5.51
2022-10-05T09:34:48.300Z,5.84
2022-10-05T09:35:52.370Z,5.21
2022-10-05T09:36:30.159Z,4.99
2022-10-05T09:37:24.292Z,5.43
2022-10-05T09:38:23.227Z,3.88
2022-10-05T09:39:16.803Z,4.10
2022-10-05T09:40:28.308Z,5.11
2022-10-05T09:41:43.581Z,4.93
2022-10-05T09:42:35.575Z,3.55
2022-10-05T09:43:30.257Z,4.43
2022-10-05T09:44:18.822Z,5.26
2022-10-05T09:45:01.587Z,4.59
2022-10-05T09:46:00.311Z,4.75
2022-10-05T09:46:48.387Z,3.70
2022-10-05T09:47:35.238Z,4.44
2022-10-05T09:48:49.267Z,4.89
2022-10-05T09:50:00.321Z,4.13
2022-10-05T09:50:54.047Z,4.82
2022-10-05T09:51:55.317Z,7.69
2022-10-05T09:52:54.401Z,6.61
2022-10-05T09:53:48.952Z,5.04
2022-10-05T09:55:07.246Z,6.30
2022-10-05T09:56:19.625Z,5.07
2022-10-05T09:57:39.322Z,6.94
2022-10-05T09:58:44.869Z,7.53
2022-10-05T09:59:51.241Z,5.47
2022-10-05T10:01:09.290Z,4.18
2022-10-05T10:02:10.326Z,4.69
2022-10-05T10:03:09.319Z,5.53
2022-10-05T10:03:56.608Z,7.15
2022-10-05T10:05:12.247Z,6.65
2022-10-05T10:06:10.459Z,5.16
2022-10-05T10:07:16.266Z,6.41
2022-10-05T10:08:36.274Z,6.36
2022-10-05T10:09:34.052Z,6.80
2022-10-05T10:10:29.337Z,4.71
2022-10-05T10:11:34.275Z,5.93
2022-10-05T10:12:40.255Z,6.91
2022-10-05T10:14:00.354Z,4.78
2022-10-05T10:15:19.224Z,4.75
2022-10-05T10:16:19.324Z,4.79
2022-10-05T10:17:19.265Z,5.39
2022-10-05T10:18:25.295Z,3.54
2022-10-05T10:19:52.264Z,5.25
2022-10-05T10:20:55.421Z,5.72
2022-10-05T10:22:01.205Z,5.19
2022-10-05T10:23:13.294Z,5.90
2022-10-05T10:24:26.282Z,5.32
2022-10-05T10:25:32.299Z,7.32
2022-10-05T10:26:27.296Z,9.56
2022-10-05T10:27:17.241Z,8.54
2022-10-05T10:27:54.173Z,6.04
2022-10-05T10:29:17.332Z,5.06
2022-10-05T10:29:51.692Z,5.93
2022-10-05T10:30:47.328Z,6.28
2022-10-05T10:31:44.563Z,6.63
2022-10-05T10:32:41.234Z,6.35
2022-10-05T10:33:38.392Z,4.94
2022-10-05T10:34:44.222Z,6.19
2022-10-05T10:35:37.283Z,4.36
2022-10-05T10:36:25.291Z,5.59
2022-10-05T10:37:40.579Z,5.84
2022-10-05T10:38:45.217Z,5.22
2022-10-05T10:39:28.299Z,5.94
2022-10-05T10:40:27.241Z,7.26
2022-10-05T10:41:22.355Z,6.94
2022-10-05T10:42:09.245Z,5.00
2022-10-05T10:43:08.276Z,4.66
2022-10-05T10:44:22.216Z,3.78
2022-10-05T10:45:14.283Z,4.93
2022-10-05T10:46:14.305Z,5.96
2022-10-05T10:47:06.288Z,4.95
2022-10-05T10:47:54.242Z,5.26
2022-10-05T10:48:37.860Z,5.04
2022-10-05T10:49:37.255Z,4.78
2022-10-05T10:50:36.532Z,4.53
2022-10-05T10:51:39.235Z,3.56
2022-10-05T10:52:40.365Z,4.81
2022-10-05T10:53:38.244Z,5.49
2022-10-05T10:54:45.262Z,5.63
2022-10-05T10:55:57.217Z,4.44
2022-10-05T10:57:04.415Z,3.61
2022-10-05T10:58:01.219Z,5.11
2022-10-05T10:59:07.235Z,5.26
2022-10-05T11:00:22.303Z,4.36
2022-10-05T11:01:22.229Z,3.63
2022-10-05T11:02:44.315Z,3.49
2022-10-05T11:03:56.205Z,3.70
2022-10-05T11:05:08.239Z,3.46
2022-10-05T11:06:14.347Z,4.11
2022-10-05T11:07:15.231Z,4.69
2022-10-05T11:08:01.295Z,4.41
2022-10-05T11:09:02.218Z,4.05
2022-10-05T11:10:21.256Z,3.53
2022-10-05T11:11:21.201Z,3.70
2022-10-05T11:12:30.929Z,4.41
2022-10-05T11:13:41.179Z,4.09
2022-10-05T11:14:59.222Z,4.19
2022-10-05T11:16:37.354Z,4.51
2022-10-05T11:17:25.264Z,4.68
2022-10-05T11:18:29.200Z,3.56
2022-10-05T11:19:15.261Z,2.79
2022-10-05T11:20:12.196Z,3.24
2022-10-05T11:21:30.445Z,4.14
2022-10-05T11:22:27.245Z,4.14
2022-10-05T11:23:25.272Z,3.22
2022-10-05T11:24:17.203Z,4.00
2022-10-05T11:25:04.272Z,3.58
2022-10-05T11:26:00.200Z,4.20
2022-10-05T11:27:17.377Z,3.30
2022-10-05T11:28:24.252Z,3.72
2022-10-05T11:29:05.278Z,2.88
2022-10-05T11:30:29.200Z,3.40
2022-10-05T11:31:12.275Z,3.05
2022-10-05T11:32:01.171Z,3.33
2022-10-05T11:32:53.294Z,4.53
2022-10-05T11:33:42.185Z,4.57
2022-10-05T11:34:29.324Z,3.72
2022-10-05T11:35:10.185Z,4.74
2022-10-05T11:36:15.251Z,5.55
2022-10-05T11:37:17.196Z,5.24
2022-10-05T11:38:09.600Z,5.93
2022-10-05T11:39:15.230Z,3.86
2022-10-05T11:40:28.278Z,4.46
2022-10-05T11:41:27.194Z,5.25
2022-10-05T11:42:46.264Z,5.16
2022-10-05T11:43:29.225Z,5.51
2022-10-05T11:44:34.215Z,7.29
2022-10-05T11:45:43.231Z,5.56
2022-10-05T11:46:49.273Z,3.72
2022-10-05T11:48:03.301Z,3.47
2022-10-05T11:49:38.229Z,4.22
2022-10-05T11:51:11.307Z,5.88
2022-10-05T11:52:31.314Z,5.79
2022-10-05T11:53:29.181Z,4.45
2022-10-05T11:55:09.843Z,5.01
2022-10-05T11:56:12.211Z,5.11
2022-10-05T11:57:29.246Z,4.43
2022-10-05T11:58:37.241Z,3.70
2022-10-05T11:59:48.196Z,3.40
2022-10-05T12:00:53.228Z,4.16
2022-10-05T12:02:06.200Z,5.91
2022-10-05T12:03:20.276Z,7.88
2022-10-05T12:04:32.198Z,7.06
2022-10-05T12:06:00.221Z,5.96
2022-10-05T12:07:21.293Z,6.46
2022-10-05T12:08:22.177Z,5.61
2022-10-05T12:09:23.302Z,6.32
2022-10-05T12:10:23.194Z,5.61
2022-10-05T12:11:40.181Z,5.27
2022-10-05T12:12:39.228Z,5.14
2022-10-05T12:13:42.175Z,4.63
2022-10-05T12:14:58.244Z,4.79
2022-10-05T12:16:28.241Z,5.15
2022-10-05T12:17:27.285Z,4.70
2022-10-05T12:18:13.581Z,4.70
2022-10-05T12:19:02.134Z,4.68
2022-10-05T12:19:46.295Z,5.35
2022-10-05T12:20:35.251Z,3.64
2022-10-05T12:21:24.370Z,3.95
2022-10-05T12:22:22.182Z,4.46
2022-10-05T12:23:05.177Z,5.16
2022-10-05T12:23:53.257Z,4.91
2022-10-05T12:24:43.175Z,4.47
2022-10-05T12:25:40.515Z,5.81
2022-10-05T12:26:34.209Z,5.29
2022-10-05T12:27:17.291Z,4.53
2022-10-05T12:28:11.244Z,5.54
2022-10-05T12:28:50.292Z,9.48
2022-10-05T12:29:42.161Z,9.56
2022-10-05T12:31:02.261Z,8.57
2022-10-05T12:32:13.206Z,8.01
2022-10-05T12:33:08.332Z,8.04
2022-10-05T12:34:12.244Z,6.25
2022-10-05T12:35:36.520Z,4.91
2022-10-05T12:37:05.624Z,6.25
2022-10-05T12:37:52.275Z,5.22
2022-10-05T12:38:37.135Z,4.19
2022-10-05T12:39:39.236Z,3.83
2022-10-05T12:40:52.173Z,4.47
2022-10-05T12:42:07.143Z,5.71
2022-10-05T12:43:28.216Z,4.50
2022-10-05T12:44:51.246Z,5.03
2022-10-05T12:46:00.179Z,4.47
2022-10-05T12:47:14.216Z,3.44
2022-10-05T12:48:37.132Z,4.76
2022-10-05T12:49:37.251Z,4.93
2022-10-05T12:50:27.186Z,5.04
2022-10-05T12:51:42.321Z,5.39
2022-10-05T12:52:45.259Z,3.60
2022-10-05T12:53:54.008Z,3.89
2022-10-05T12:54:53.259Z,4.47
2022-10-05T12:55:55.274Z,5.10
2022-10-05T12:57:02.155Z,4.15
2022-10-05T12:58:35.102Z,5.07
2022-10-05T12:59:33.141Z,6.31
2022-10-05T13:00:30.160Z,6.36
2022-10-05T13:01:49.298Z,5.00
2022-10-05T13:02:44.191Z,4.49
2022-10-05T13:03:35.108Z,5.09
2022-10-05T13:04:27.232Z,6.01
2022-10-05T13:05:17.168Z,6.28
2022-10-05T13:06:19.231Z,7.54
2022-10-05T13:07:16.221Z,4.53
2022-10-05T13:08:04.220Z,3.97